sensor_id;sensor_type;location;lat;lon;timestamp;temperature;humidity
16801;DHT22;8518;53.236;10.384;2023-08-01T00:00:05;16.50;99.90
16801;DHT22;8518;53.236;10.384;2023-08-01T00:02:32;16.60;99.90
16801;DHT22;8518;53.236;10.384;2023-08-01T00:05:00;16.60;99.90
16801;DHT22;8518;53.236;10.384;2023-08-01T00:07:27;16.60;99.90
16801;DHT22;8518;53.236;10.384;2023-08-01T00:09:53;16.70;99.90
16801;DHT22;8518;53.236;10.384;2023-08-01T00:12:19;16.60;99.90
16801;DHT22;8518;53.236;10.384;2023-08-01T00:14:47;16.70;99.90
16801;DHT22;8518;53.236;10.384;2023-08-01T00:20:37;16.60;99.90
16801;DHT22;8518;53.236;10.384;2023-08-01T00:23:05;16.50;99.90
16801;DHT22;8518;53.236;10.384;2023-08-01T00:28:52;16.50;99.90
16801;DHT22;8518;53.236;10.384;2023-08-01T00:31:18;16.60;99.90
16801;DHT22;8518;53.236;10.384;2023-08-01T00:33:49;16.60;99.90
16801;DHT22;8518;53.236;10.384;2023-08-01T00:39:37;16.40;99.90
16801;DHT22;8518;53.236;10.384;2023-08-01T00:42:03;16.80;99.90
16801;DHT22;8518;53.236;10.384;2023-08-01T00:44:32;16.40;99.90
16801;DHT22;8518;53.236;10.384;2023-08-01T00:50:20;16.40;99.90
16801;DHT22;8518;53.236;10.384;2023-08-01T00:52:47;16.40;99.90
16801;DHT22;8518;53.236;10.384;2023-08-01T00:55:14;16.30;99.90
16801;DHT22;8518;53.236;10.384;2023-08-01T00:57:43;16.30;99.90
16801;DHT22;8518;53.236;10.384;2023-08-01T01:00:12;16.40;99.90
16801;DHT22;8518;53.236;10.384;2023-08-01T01:02:38;16.30;99.90
16801;DHT22;8518;53.236;10.384;2023-08-01T01:05:04;16.40;99.90
16801;DHT22;8518;53.236;10.384;2023-08-01T01:07:32;16.40;99.90
16801;DHT22;8518;53.236;10.384;2023-08-01T01:10:00;16.40;99.90
16801;DHT22;8518;53.236;10.384;2023-08-01T01:12:25;16.70;99.90
16801;DHT22;8518;53.236;10.384;2023-08-01T01:14:51;16.40;99.90
16801;DHT22;8518;53.236;10.384;2023-08-01T01:20:39;16.40;99.90
16801;DHT22;8518;53.236;10.384;2023-08-01T01:23:05;16.20;99.90
16801;DHT22;8518;53.236;10.384;2023-08-01T01:28:54;16.40;99.90
16801;DHT22;8518;53.236;10.384;2023-08-01T01:31:20;16.50;99.90
16801;DHT22;8518;53.236;10.384;2023-08-01T01:33:50;16.40;99.90
16801;DHT22;8518;53.236;10.384;2023-08-01T01:39:38;16.40;99.90
16801;DHT22;8518;53.236;10.384;2023-08-01T01:42:04;16.70;99.90
16801;DHT22;8518;53.236;10.384;2023-08-01T01:44:32;16.40;99.90
16801;DHT22;8518;53.236;10.384;2023-08-01T01:50:22;16.30;99.90
16801;DHT22;8518;53.236;10.384;2023-08-01T01:52:48;16.30;99.90
16801;DHT22;8518;53.236;10.384;2023-08-01T01:55:14;16.50;99.90
16801;DHT22;8518;53.236;10.384;2023-08-01T01:57:39;16.40;99.90
16801;DHT22;8518;53.236;10.384;2023-08-01T02:00:06;16.30;99.90
16801;DHT22;8518;53.236;10.384;2023-08-01T02:02:36;16.40;99.90
16801;DHT22;8518;53.236;10.384;2023-08-01T02:05:02;16.40;99.90
16801;DHT22;8518;53.236;10.384;2023-08-01T02:07:29;16.40;99.90
16801;DHT22;8518;53.236;10.384;2023-08-01T02:09:55;16.40;99.90
16801;DHT22;8518;53.236;10.384;2023-08-01T02:12:23;16.40;99.90
16801;DHT22;8518;53.236;10.384;2023-08-01T02:14:48;16.30;99.90
16801;DHT22;8518;53.236;10.384;2023-08-01T02:20:36;16.40;99.90
16801;DHT22;8518;53.236;10.384;2023-08-01T02:23:01;16.80;99.90
16801;DHT22;8518;53.236;10.384;2023-08-01T02:28:51;16.40;99.90
16801;DHT22;8518;53.236;10.384;2023-08-01T02:31:16;16.40;99.90
16801;DHT22;8518;53.236;10.384;2023-08-01T02:33:42;16.40;99.90
16801;DHT22;8518;53.236;10.384;2023-08-01T02:39:31;16.40;99.90
16801;DHT22;8518;53.236;10.384;2023-08-01T02:41:57;16.40;99.90
16801;DHT22;8518;53.236;10.384;2023-08-01T02:44:22;16.80;99.90
16801;DHT22;8518;53.236;10.384;2023-08-01T02:50:10;16.40;99.90
16801;DHT22;8518;53.236;10.384;2023-08-01T02:55:58;16.40;99.90
16801;DHT22;8518;53.236;10.384;2023-08-01T02:58:23;16.30;99.90
16801;DHT22;8518;53.236;10.384;2023-08-01T03:00:55;17.00;99.90
16801;DHT22;8518;53.236;10.384;2023-08-01T03:03:21;16.40;99.90
16801;DHT22;8518;53.236;10.384;2023-08-01T03:05:47;16.60;99.90
16801;DHT22;8518;53.236;10.384;2023-08-01T03:08:13;16.40;99.90
16801;DHT22;8518;53.236;10.384;2023-08-01T03:10:38;16.40;99.90
16801;DHT22;8518;53.236;10.384;2023-08-01T03:13:04;16.40;99.90
16801;DHT22;8518;53.236;10.384;2023-08-01T03:18:55;16.30;99.90
16801;DHT22;8518;53.236;10.384;2023-08-01T03:21:20;16.30;99.90
16801;DHT22;8518;53.236;10.384;2023-08-01T03:23:46;16.30;99.90
16801;DHT22;8518;53.236;10.384;2023-08-01T03:29:36;16.30;99.90
16801;DHT22;8518;53.236;10.384;2023-08-01T03:32:02;16.30;99.90
16801;DHT22;8518;53.236;10.384;2023-08-01T03:34:28;16.30;99.90
16801;DHT22;8518;53.236;10.384;2023-08-01T03:40:16;16.30;99.90
16801;DHT22;8518;53.236;10.384;2023-08-01T03:42:41;16.20;99.90
16801;DHT22;8518;53.236;10.384;2023-08-01T03:45:08;16.20;99.90
16801;DHT22;8518;53.236;10.384;2023-08-01T03:47:33;16.20;99.90
16801;DHT22;8518;53.236;10.384;2023-08-01T03:49:59;16.20;99.90
16801;DHT22;8518;53.236;10.384;2023-08-01T03:52:25;16.20;99.90
16801;DHT22;8518;53.236;10.384;2023-08-01T03:54:55;16.20;99.90
16801;DHT22;8518;53.236;10.384;2023-08-01T04:00:42;16.20;99.90
16801;DHT22;8518;53.236;10.384;2023-08-01T04:03:08;16.20;99.90
16801;DHT22;8518;53.236;10.384;2023-08-01T04:05:38;16.20;99.90
16801;DHT22;8518;53.236;10.384;2023-08-01T04:08:03;16.10;99.90
16801;DHT22;8518;53.236;10.384;2023-08-01T04:10:29;16.10;99.90
16801;DHT22;8518;53.236;10.384;2023-08-01T04:12:54;16.20;99.90
16801;DHT22;8518;53.236;10.384;2023-08-01T04:15:21;16.20;99.90
16801;DHT22;8518;53.236;10.384;2023-08-01T04:17:47;16.10;99.90
16801;DHT22;8518;53.236;10.384;2023-08-01T04:20:13;16.10;99.90
16801;DHT22;8518;53.236;10.384;2023-08-01T04:22:38;16.00;99.90
16801;DHT22;8518;53.236;10.384;2023-08-01T04:25:05;16.10;99.90
16801;DHT22;8518;53.236;10.384;2023-08-01T04:27:33;16.20;99.90
16801;DHT22;8518;53.236;10.384;2023-08-01T04:30:00;16.20;99.90
16801;DHT22;8518;53.236;10.384;2023-08-01T04:32:25;16.00;99.90
16801;DHT22;8518;53.236;10.384;2023-08-01T04:34:51;16.20;99.90
16801;DHT22;8518;53.236;10.384;2023-08-01T04:40:39;16.10;99.90
16801;DHT22;8518;53.236;10.384;2023-08-01T04:46:27;16.20;99.90
16801;DHT22;8518;53.236;10.384;2023-08-01T04:48:52;16.20;99.90
16801;DHT22;8518;53.236;10.384;2023-08-01T04:51:18;16.20;99.90
16801;DHT22;8518;53.236;10.384;2023-08-01T04:53:43;16.20;99.90
16801;DHT22;8518;53.236;10.384;2023-08-01T04:59:36;16.30;99.90
16801;DHT22;8518;53.236;10.384;2023-08-01T05:02:02;16.30;99.90
16801;DHT22;8518;53.236;10.384;2023-08-01T05:04:31;16.30;99.90
16801;DHT22;8518;53.236;10.384;2023-08-01T05:10:19;16.30;99.90
16801;DHT22;8518;53.236;10.384;2023-08-01T05:12:44;16.30;99.90
16801;DHT22;8518;53.236;10.384;2023-08-01T05:15:13;16.20;99.90
16801;DHT22;8518;53.236;10.384;2023-08-01T05:17:41;16.30;99.90
16801;DHT22;8518;53.236;10.384;2023-08-01T05:20:07;16.40;99.90
16801;DHT22;8518;53.236;10.384;2023-08-01T05:22:33;16.50;99.90
16801;DHT22;8518;53.236;10.384;2023-08-01T05:25:00;16.50;99.90
16801;DHT22;8518;53.236;10.384;2023-08-01T05:27:27;16.60;99.90
16801;DHT22;8518;53.236;10.384;2023-08-01T05:29:55;16.60;99.90
16801;DHT22;8518;53.236;10.384;2023-08-01T05:32:21;16.70;99.90
16801;DHT22;8518;53.236;10.384;2023-08-01T05:34:50;16.80;99.90
16801;DHT22;8518;53.236;10.384;2023-08-01T05:40:37;16.70;99.90
16801;DHT22;8518;53.236;10.384;2023-08-01T05:43:03;16.80;99.90
16801;DHT22;8518;53.236;10.384;2023-08-01T05:48:52;16.70;99.90
16801;DHT22;8518;53.236;10.384;2023-08-01T05:51:17;17.00;99.90
16801;DHT22;8518;53.236;10.384;2023-08-01T05:53:43;16.80;99.90
16801;DHT22;8518;53.236;10.384;2023-08-01T05:59:31;16.70;99.90
16801;DHT22;8518;53.236;10.384;2023-08-01T06:01:57;16.70;99.90
16801;DHT22;8518;53.236;10.384;2023-08-01T06:04:22;16.70;99.90
16801;DHT22;8518;53.236;10.384;2023-08-01T06:10:10;16.70;99.90
16801;DHT22;8518;53.236;10.384;2023-08-01T06:12:36;16.80;99.90
16801;DHT22;8518;53.236;10.384;2023-08-01T06:15:02;16.80;99.90
16801;DHT22;8518;53.236;10.384;2023-08-01T06:17:27;16.90;99.90
16801;DHT22;8518;53.236;10.384;2023-08-01T06:19:53;17.70;99.90
16801;DHT22;8518;53.236;10.384;2023-08-01T06:22:20;17.00;99.90
16801;DHT22;8518;53.236;10.384;2023-08-01T06:24:45;17.00;99.90
16801;DHT22;8518;53.236;10.384;2023-08-01T06:30:33;16.90;99.90
16801;DHT22;8518;53.236;10.384;2023-08-01T06:32:59;17.00;99.90
16801;DHT22;8518;53.236;10.384;2023-08-01T06:38:46;17.00;99.90
16801;DHT22;8518;53.236;10.384;2023-08-01T06:41:13;17.00;99.90
16801;DHT22;8518;53.236;10.384;2023-08-01T06:43:40;17.00;99.90
16801;DHT22;8518;53.236;10.384;2023-08-01T06:49:29;17.10;99.90
16801;DHT22;8518;53.236;10.384;2023-08-01T06:51:54;17.20;99.90
16801;DHT22;8518;53.236;10.384;2023-08-01T06:54:20;17.40;99.90
16801;DHT22;8518;53.236;10.384;2023-08-01T07:00:08;17.30;99.90
16801;DHT22;8518;53.236;10.384;2023-08-01T07:02:34;17.50;99.90
16801;DHT22;8518;53.236;10.384;2023-08-01T07:04:59;17.50;99.90
16801;DHT22;8518;53.236;10.384;2023-08-01T07:07:25;17.50;99.90
16801;DHT22;8518;53.236;10.384;2023-08-01T07:09:50;17.70;99.90
16801;DHT22;8518;53.236;10.384;2023-08-01T07:15:38;17.60;99.90
16801;DHT22;8518;53.236;10.384;2023-08-01T07:18:07;17.70;99.90
16801;DHT22;8518;53.236;10.384;2023-08-01T07:20:32;17.60;99.90
16801;DHT22;8518;53.236;10.384;2023-08-01T07:23:01;17.40;99.90
16801;DHT22;8518;53.236;10.384;2023-08-01T07:28:50;17.00;99.90
16801;DHT22;8518;53.236;10.384;2023-08-01T07:31:16;17.00;99.90
16801;DHT22;8518;53.236;10.384;2023-08-01T07:33:41;17.10;99.90
16801;DHT22;8518;53.236;10.384;2023-08-01T07:39:29;17.30;99.90
16801;DHT22;8518;53.236;10.384;2023-08-01T07:45:17;17.40;99.90
16801;DHT22;8518;53.236;10.384;2023-08-01T07:47:44;17.30;99.90
16801;DHT22;8518;53.236;10.384;2023-08-01T07:50:12;17.20;99.90
16801;DHT22;8518;53.236;10.384;2023-08-01T07:52:38;17.20;99.90
16801;DHT22;8518;53.236;10.384;2023-08-01T07:55:04;17.30;99.90
16801;DHT22;8518;53.236;10.384;2023-08-01T07:57:33;17.30;99.90
16801;DHT22;8518;53.236;10.384;2023-08-01T08:00:02;17.20;99.90
16801;DHT22;8518;53.236;10.384;2023-08-01T08:02:27;17.20;99.90
16801;DHT22;8518;53.236;10.384;2023-08-01T08:04:53;17.10;99.90
16801;DHT22;8518;53.236;10.384;2023-08-01T08:10:47;16.90;99.90
16801;DHT22;8518;53.236;10.384;2023-08-01T08:13:12;17.00;99.90
16801;DHT22;8518;53.236;10.384;2023-08-01T08:19:00;17.10;99.90
16801;DHT22;8518;53.236;10.384;2023-08-01T08:21:26;17.50;99.90
16801;DHT22;8518;53.236;10.384;2023-08-01T08:23:51;18.00;99.90
16801;DHT22;8518;53.236;10.384;2023-08-01T08:29:39;18.90;99.90
16801;DHT22;8518;53.236;10.384;2023-08-01T08:32:05;19.30;99.90
16801;DHT22;8518;53.236;10.384;2023-08-01T08:34:31;19.60;99.90
16801;DHT22;8518;53.236;10.384;2023-08-01T08:40:20;20.10;99.90
16801;DHT22;8518;53.236;10.384;2023-08-01T08:42:46;20.50;99.90
16801;DHT22;8518;53.236;10.384;2023-08-01T08:45:15;20.80;99.90
16801;DHT22;8518;53.236;10.384;2023-08-01T08:47:44;21.00;99.90
16801;DHT22;8518;53.236;10.384;2023-08-01T08:50:14;20.90;99.90
16801;DHT22;8518;53.236;10.384;2023-08-01T08:52:40;21.00;99.90
16801;DHT22;8518;53.236;10.384;2023-08-01T08:55:07;21.20;99.90
16801;DHT22;8518;53.236;10.384;2023-08-01T08:57:34;21.10;99.90
16801;DHT22;8518;53.236;10.384;2023-08-01T09:00:00;20.90;99.90
16801;DHT22;8518;53.236;10.384;2023-08-01T09:02:28;21.30;99.90
16801;DHT22;8518;53.236;10.384;2023-08-01T09:04:57;21.30;99.90
16801;DHT22;8518;53.236;10.384;2023-08-01T09:07:28;20.80;99.90
16801;DHT22;8518;53.236;10.384;2023-08-01T09:09:56;20.40;99.90
16801;DHT22;8518;53.236;10.384;2023-08-01T09:12:22;20.10;99.90
16801;DHT22;8518;53.236;10.384;2023-08-01T09:14:50;20.10;99.90
16801;DHT22;8518;53.236;10.384;2023-08-01T09:23:09;22.30;99.90
16801;DHT22;8518;53.236;10.384;2023-08-01T09:28:59;21.50;99.90
16801;DHT22;8518;53.236;10.384;2023-08-01T09:34:47;20.20;99.90
16801;DHT22;8518;53.236;10.384;2023-08-01T09:37:23;21.30;99.90
16801;DHT22;8518;53.236;10.384;2023-08-01T09:39:58;23.50;99.90
16801;DHT22;8518;53.236;10.384;2023-08-01T09:42:23;24.30;99.90
16801;DHT22;8518;53.236;10.384;2023-08-01T09:44:50;24.80;99.90
16801;DHT22;8518;53.236;10.384;2023-08-01T09:50:38;24.70;99.90
16801;DHT22;8518;53.236;10.384;2023-08-01T09:53:08;23.30;99.90
16801;DHT22;8518;53.236;10.384;2023-08-01T09:58:56;25.40;99.90
16801;DHT22;8518;53.236;10.384;2023-08-01T10:01:25;27.40;99.90
16801;DHT22;8518;53.236;10.384;2023-08-01T10:03:53;26.60;99.90
16801;DHT22;8518;53.236;10.384;2023-08-01T10:06:20;25.90;99.90
16801;DHT22;8518;53.236;10.384;2023-08-01T10:08:47;26.10;99.90
16801;DHT22;8518;53.236;10.384;2023-08-01T10:11:21;27.10;99.90
16801;DHT22;8518;53.236;10.384;2023-08-01T10:13:47;27.20;99.90
16801;DHT22;8518;53.236;10.384;2023-08-01T10:19:35;26.60;99.90
16801;DHT22;8518;53.236;10.384;2023-08-01T10:25:24;25.10;99.90
16801;DHT22;8518;53.236;10.384;2023-08-01T10:28:00;26.30;99.90
16801;DHT22;8518;53.236;10.384;2023-08-01T10:30:27;27.50;99.90
16801;DHT22;8518;53.236;10.384;2023-08-01T10:35:37;31.60;96.30
16801;DHT22;8518;53.236;10.384;2023-08-01T10:38:10;33.30;92.20
16801;DHT22;8518;53.236;10.384;2023-08-01T10:40:41;34.00;89.00
16801;DHT22;8518;53.236;10.384;2023-08-01T10:43:20;34.20;83.90
16801;DHT22;8518;53.236;10.384;2023-08-01T10:49:37;32.20;89.50
16801;DHT22;8518;53.236;10.384;2023-08-01T10:52:15;31.00;90.60
16801;DHT22;8518;53.236;10.384;2023-08-01T10:54:41;30.10;90.80
16801;DHT22;8518;53.236;10.384;2023-08-01T11:00:28;30.70;90.30
16801;DHT22;8518;53.236;10.384;2023-08-01T11:02:54;31.80;87.60
16801;DHT22;8518;53.236;10.384;2023-08-01T11:05:23;31.80;86.10
16801;DHT22;8518;53.236;10.384;2023-08-01T11:07:55;31.70;87.10
16801;DHT22;8518;53.236;10.384;2023-08-01T11:10:28;33.10;82.60
16801;DHT22;8518;53.236;10.384;2023-08-01T11:12:54;33.70;78.60
16801;DHT22;8518;53.236;10.384;2023-08-01T11:15:20;33.40;76.60
16801;DHT22;8518;53.236;10.384;2023-08-01T11:17:51;33.10;76.50
16801;DHT22;8518;53.236;10.384;2023-08-01T11:20:19;33.10;79.10
16801;DHT22;8518;53.236;10.384;2023-08-01T11:23:01;33.20;75.00
16801;DHT22;8518;53.236;10.384;2023-08-01T11:28:49;33.40;76.00
16801;DHT22;8518;53.236;10.384;2023-08-01T11:34:40;31.10;79.70
16801;DHT22;8518;53.236;10.384;2023-08-01T11:40:31;28.60;90.20
16801;DHT22;8518;53.236;10.384;2023-08-01T11:43:00;29.50;90.60
16801;DHT22;8518;53.236;10.384;2023-08-01T11:48:50;29.10;92.00
16801;DHT22;8518;53.236;10.384;2023-08-01T11:51:16;27.50;92.40
16801;DHT22;8518;53.236;10.384;2023-08-01T11:53:42;26.20;95.20
16801;DHT22;8518;53.236;10.384;2023-08-01T11:59:34;22.90;99.90
16801;DHT22;8518;53.236;10.384;2023-08-01T12:01:59;20.60;99.90
16801;DHT22;8518;53.236;10.384;2023-08-01T12:04:26;19.20;99.90
16801;DHT22;8518;53.236;10.384;2023-08-01T12:10:14;17.60;99.90
16801;DHT22;8518;53.236;10.384;2023-08-01T12:12:45;17.40;99.90
16801;DHT22;8518;53.236;10.384;2023-08-01T12:15:12;17.50;99.90
16801;DHT22;8518;53.236;10.384;2023-08-01T12:17:38;17.90;99.90
16801;DHT22;8518;53.236;10.384;2023-08-01T12:20:04;18.50;99.90
16801;DHT22;8518;53.236;10.384;2023-08-01T12:22:29;19.30;99.90
16801;DHT22;8518;53.236;10.384;2023-08-01T12:24:55;20.30;99.90
16801;DHT22;8518;53.236;10.384;2023-08-01T12:30:43;23.40;99.90
16801;DHT22;8518;53.236;10.384;2023-08-01T12:33:09;25.60;99.90
16801;DHT22;8518;53.236;10.384;2023-08-01T12:38:57;29.30;99.90
16801;DHT22;8518;53.236;10.384;2023-08-01T12:44:45;26.60;99.90
16801;DHT22;8518;53.236;10.384;2023-08-01T12:50:33;23.10;99.90
16801;DHT22;8518;53.236;10.384;2023-08-01T12:52:59;21.80;99.90
16801;DHT22;8518;53.236;10.384;2023-08-01T12:58:46;20.50;99.90
16801;DHT22;8518;53.236;10.384;2023-08-01T13:01:12;20.80;99.90
16801;DHT22;8518;53.236;10.384;2023-08-01T13:03:38;21.30;99.90
16801;DHT22;8518;53.236;10.384;2023-08-01T13:06:03;21.80;99.90
16801;DHT22;8518;53.236;10.384;2023-08-01T13:08:29;22.10;99.90
16801;DHT22;8518;53.236;10.384;2023-08-01T13:10:55;22.70;99.90
16801;DHT22;8518;53.236;10.384;2023-08-01T13:13:20;23.10;99.90
16801;DHT22;8518;53.236;10.384;2023-08-01T13:19:08;23.10;99.90
16801;DHT22;8518;53.236;10.384;2023-08-01T13:21:34;22.50;99.90
16801;DHT22;8518;53.236;10.384;2023-08-01T13:24:00;22.10;99.90
16801;DHT22;8518;53.236;10.384;2023-08-01T13:29:55;22.50;99.90
16801;DHT22;8518;53.236;10.384;2023-08-01T13:32:20;22.80;99.90
16801;DHT22;8518;53.236;10.384;2023-08-01T13:34:46;23.10;99.90
16801;DHT22;8518;53.236;10.384;2023-08-01T13:40:35;23.30;99.90
16801;DHT22;8518;53.236;10.384;2023-08-01T13:43:00;23.30;99.90
16801;DHT22;8518;53.236;10.384;2023-08-01T13:48:51;22.70;99.90
16801;DHT22;8518;53.236;10.384;2023-08-01T13:51:17;22.20;99.90
16801;DHT22;8518;53.236;10.384;2023-08-01T13:53:42;21.70;99.90
16801;DHT22;8518;53.236;10.384;2023-08-01T13:59:30;21.30;99.90
16801;DHT22;8518;53.236;10.384;2023-08-01T14:01:56;21.40;99.90
16801;DHT22;8518;53.236;10.384;2023-08-01T14:04:22;21.40;99.90
16801;DHT22;8518;53.236;10.384;2023-08-01T14:10:10;20.50;99.90
16801;DHT22;8518;53.236;10.384;2023-08-01T14:12:37;20.00;99.90
16801;DHT22;8518;53.236;10.384;2023-08-01T14:15:04;19.70;99.90
16801;DHT22;8518;53.236;10.384;2023-08-01T14:17:29;19.50;99.90
16801;DHT22;8518;53.236;10.384;2023-08-01T14:19:55;19.30;99.90
16801;DHT22;8518;53.236;10.384;2023-08-01T14:22:21;19.20;99.90
16801;DHT22;8518;53.236;10.384;2023-08-01T14:24:47;19.10;99.90
16801;DHT22;8518;53.236;10.384;2023-08-01T14:30:35;19.10;99.90
16801;DHT22;8518;53.236;10.384;2023-08-01T14:33:05;19.30;99.90
16801;DHT22;8518;53.236;10.384;2023-08-01T14:38:54;19.40;99.90
16801;DHT22;8518;53.236;10.384;2023-08-01T14:41:22;19.50;99.90
16801;DHT22;8518;53.236;10.384;2023-08-01T14:43:48;19.40;99.90
16801;DHT22;8518;53.236;10.384;2023-08-01T14:49:36;19.50;99.90
16801;DHT22;8518;53.236;10.384;2023-08-01T14:52:02;19.60;99.90
16801;DHT22;8518;53.236;10.384;2023-08-01T14:54:28;19.40;99.90
16801;DHT22;8518;53.236;10.384;2023-08-01T15:00:16;18.90;99.90
16801;DHT22;8518;53.236;10.384;2023-08-01T15:02:42;18.40;99.90
16801;DHT22;8518;53.236;10.384;2023-08-01T15:05:07;18.10;99.90
16801;DHT22;8518;53.236;10.384;2023-08-01T15:07:33;17.90;99.90
16801;DHT22;8518;53.236;10.384;2023-08-01T15:09:59;17.70;99.90
16801;DHT22;8518;53.236;10.384;2023-08-01T15:12:25;17.30;99.90
16801;DHT22;8518;53.236;10.384;2023-08-01T15:14:55;17.30;99.90
16801;DHT22;8518;53.236;10.384;2023-08-01T15:20:44;17.10;99.90
16801;DHT22;8518;53.236;10.384;2023-08-01T15:23:10;17.30;99.90
16801;DHT22;8518;53.236;10.384;2023-08-01T15:28:58;17.70;99.90
16801;DHT22;8518;53.236;10.384;2023-08-01T15:31:23;17.90;99.90
16801;DHT22;8518;53.236;10.384;2023-08-01T15:33:49;18.20;99.90
16801;DHT22;8518;53.236;10.384;2023-08-01T15:39:37;19.60;99.90
16801;DHT22;8518;53.236;10.384;2023-08-01T15:42:03;19.40;99.90
16801;DHT22;8518;53.236;10.384;2023-08-01T15:44:28;19.40;99.90
16801;DHT22;8518;53.236;10.384;2023-08-01T15:50:17;19.20;99.90
16801;DHT22;8518;53.236;10.384;2023-08-01T15:52:42;19.00;99.90
16801;DHT22;8518;53.236;10.384;2023-08-01T15:55:14;18.90;99.90
16801;DHT22;8518;53.236;10.384;2023-08-01T15:57:39;19.00;99.90
16801;DHT22;8518;53.236;10.384;2023-08-01T16:00:05;19.00;99.90
16801;DHT22;8518;53.236;10.384;2023-08-01T16:02:34;19.20;99.90
16801;DHT22;8518;53.236;10.384;2023-08-01T16:05:00;19.50;99.90
16801;DHT22;8518;53.236;10.384;2023-08-01T16:07:25;19.70;99.90
16801;DHT22;8518;53.236;10.384;2023-08-01T16:09:51;19.80;99.90
16801;DHT22;8518;53.236;10.384;2023-08-01T16:12:16;19.60;99.90
16801;DHT22;8518;53.236;10.384;2023-08-01T16:14:42;19.40;99.90
16801;DHT22;8518;53.236;10.384;2023-08-01T16:20:30;19.40;99.90
16801;DHT22;8518;53.236;10.384;2023-08-01T16:26:18;19.10;99.90
16801;DHT22;8518;53.236;10.384;2023-08-01T16:28:43;19.00;99.90
16801;DHT22;8518;53.236;10.384;2023-08-01T16:31:09;19.00;99.90
16801;DHT22;8518;53.236;10.384;2023-08-01T16:33:37;19.00;99.90
16801;DHT22;8518;53.236;10.384;2023-08-01T16:39:28;19.00;99.90
16801;DHT22;8518;53.236;10.384;2023-08-01T16:41:54;18.90;99.90
16801;DHT22;8518;53.236;10.384;2023-08-01T16:44:21;18.70;99.90
16801;DHT22;8518;53.236;10.384;2023-08-01T16:50:16;18.50;99.90
16801;DHT22;8518;53.236;10.384;2023-08-01T16:52:42;18.50;99.90
16801;DHT22;8518;53.236;10.384;2023-08-01T16:55:08;18.70;99.90
16801;DHT22;8518;53.236;10.384;2023-08-01T16:57:34;18.80;99.90
16801;DHT22;8518;53.236;10.384;2023-08-01T16:59:59;19.10;99.90
16801;DHT22;8518;53.236;10.384;2023-08-01T17:02:25;19.20;99.90
16801;DHT22;8518;53.236;10.384;2023-08-01T17:04:50;19.50;99.90
16801;DHT22;8518;53.236;10.384;2023-08-01T17:07:19;19.50;99.90
16801;DHT22;8518;53.236;10.384;2023-08-01T17:09:47;19.50;99.90
16801;DHT22;8518;53.236;10.384;2023-08-01T17:12:13;19.50;99.90
16801;DHT22;8518;53.236;10.384;2023-08-01T17:14:40;19.50;99.90
16801;DHT22;8518;53.236;10.384;2023-08-01T17:20:27;19.20;99.90
16801;DHT22;8518;53.236;10.384;2023-08-01T17:22:53;18.90;99.90
16801;DHT22;8518;53.236;10.384;2023-08-01T17:25:18;18.90;99.90
16801;DHT22;8518;53.236;10.384;2023-08-01T17:27:44;18.90;99.90
16801;DHT22;8518;53.236;10.384;2023-08-01T17:30:11;18.90;99.90
16801;DHT22;8518;53.236;10.384;2023-08-01T17:32:38;18.90;99.90
16801;DHT22;8518;53.236;10.384;2023-08-01T17:35:03;18.90;99.90
16801;DHT22;8518;53.236;10.384;2023-08-01T17:37:29;18.90;99.90
16801;DHT22;8518;53.236;10.384;2023-08-01T17:39:55;18.80;99.90
16801;DHT22;8518;53.236;10.384;2023-08-01T17:42:20;18.80;99.90
16801;DHT22;8518;53.236;10.384;2023-08-01T17:44:46;18.80;99.90
16801;DHT22;8518;53.236;10.384;2023-08-01T17:50:33;18.60;99.90
16801;DHT22;8518;53.236;10.384;2023-08-01T17:52:59;18.50;99.90
16801;DHT22;8518;53.236;10.384;2023-08-01T17:58:47;18.20;99.90
16801;DHT22;8518;53.236;10.384;2023-08-01T18:01:13;18.20;99.90
16801;DHT22;8518;53.236;10.384;2023-08-01T18:03:38;18.10;99.90
16801;DHT22;8518;53.236;10.384;2023-08-01T18:06:14;18.00;99.90
16801;DHT22;8518;53.236;10.384;2023-08-01T18:08:41;18.10;99.90
16801;DHT22;8518;53.236;10.384;2023-08-01T18:11:15;17.90;99.90
16801;DHT22;8518;53.236;10.384;2023-08-01T18:13:42;18.00;99.90
16801;DHT22;8518;53.236;10.384;2023-08-01T18:19:29;17.50;99.90
16801;DHT22;8518;53.236;10.384;2023-08-01T18:21:55;17.40;99.90
16801;DHT22;8518;53.236;10.384;2023-08-01T18:24:22;17.30;99.90
16801;DHT22;8518;53.236;10.384;2023-08-01T18:30:10;17.20;99.90
16801;DHT22;8518;53.236;10.384;2023-08-01T18:36:00;17.20;99.90
16801;DHT22;8518;53.236;10.384;2023-08-01T18:38:29;17.20;99.90
16801;DHT22;8518;53.236;10.384;2023-08-01T18:40:56;17.30;99.90
16801;DHT22;8518;53.236;10.384;2023-08-01T18:43:21;16.90;99.90
16801;DHT22;8518;53.236;10.384;2023-08-01T18:49:09;16.80;99.90
16801;DHT22;8518;53.236;10.384;2023-08-01T18:51:38;16.70;99.90
16801;DHT22;8518;53.236;10.384;2023-08-01T18:54:03;16.60;99.90
16801;DHT22;8518;53.236;10.384;2023-08-01T18:59:53;16.50;99.90
16801;DHT22;8518;53.236;10.384;2023-08-01T19:02:19;16.50;99.90
16801;DHT22;8518;53.236;10.384;2023-08-01T19:04:44;16.80;99.90
16801;DHT22;8518;53.236;10.384;2023-08-01T19:07:10;16.60;99.90
16801;DHT22;8518;53.236;10.384;2023-08-01T19:09:36;16.90;99.90
16801;DHT22;8518;53.236;10.384;2023-08-01T19:12:06;16.30;99.90
16801;DHT22;8518;53.236;10.384;2023-08-01T19:14:32;16.10;99.90
16801;DHT22;8518;53.236;10.384;2023-08-01T19:20:20;16.10;99.90
16801;DHT22;8518;53.236;10.384;2023-08-01T19:22:46;16.10;99.90
16801;DHT22;8518;53.236;10.384;2023-08-01T19:25:12;16.10;99.90
16801;DHT22;8518;53.236;10.384;2023-08-01T19:27:40;16.20;99.90
16801;DHT22;8518;53.236;10.384;2023-08-01T19:30:06;15.80;99.90
16801;DHT22;8518;53.236;10.384;2023-08-01T19:32:33;16.00;99.90
16801;DHT22;8518;53.236;10.384;2023-08-01T19:34:58;16.80;99.90
16801;DHT22;8518;53.236;10.384;2023-08-01T19:37:24;15.90;99.90
16801;DHT22;8518;53.236;10.384;2023-08-01T19:39:50;15.80;99.90
16801;DHT22;8518;53.236;10.384;2023-08-01T19:42:15;15.70;99.90
16801;DHT22;8518;53.236;10.384;2023-08-01T19:44:41;15.70;99.90
16801;DHT22;8518;53.236;10.384;2023-08-01T19:50:30;15.60;99.90
16801;DHT22;8518;53.236;10.384;2023-08-01T19:52:56;15.60;99.90
16801;DHT22;8518;53.236;10.384;2023-08-01T19:55:22;15.50;99.90
16801;DHT22;8518;53.236;10.384;2023-08-01T19:57:47;15.50;99.90
16801;DHT22;8518;53.236;10.384;2023-08-01T20:00:13;15.50;99.90
16801;DHT22;8518;53.236;10.384;2023-08-01T20:02:45;15.50;99.90
16801;DHT22;8518;53.236;10.384;2023-08-01T20:05:10;15.50;99.90
16801;DHT22;8518;53.236;10.384;2023-08-01T20:07:40;15.50;99.90
16801;DHT22;8518;53.236;10.384;2023-08-01T20:10:08;16.00;99.90
16801;DHT22;8518;53.236;10.384;2023-08-01T20:12:34;15.50;99.90
16801;DHT22;8518;53.236;10.384;2023-08-01T20:15:00;15.90;99.90
16801;DHT22;8518;53.236;10.384;2023-08-01T20:17:26;15.60;99.90